sensor_id;sensor_type;location;lat;lon;timestamp;temperature;humidity
43810;DHT22;29440;48.208;11.162;2023-01-30T00:00:58;-2.80;99.90
43810;DHT22;29440;48.208;11.162;2023-01-30T00:03:25;-2.90;99.90
43810;DHT22;29440;48.208;11.162;2023-01-30T00:05:50;-2.80;99.90
43810;DHT22;29440;48.208;11.162;2023-01-30T00:08:16;-2.90;99.90
43810;DHT22;29440;48.208;11.162;2023-01-30T00:10:42;-2.90;99.90
43810;DHT22;29440;48.208;11.162;2023-01-30T00:13:08;-2.70;99.90
43810;DHT22;29440;48.208;11.162;2023-01-30T00:15:33;-2.90;99.90
43810;DHT22;29440;48.208;11.162;2023-01-30T00:17:59;-2.90;99.90
43810;DHT22;29440;48.208;11.162;2023-01-30T00:20:25;-2.90;99.90
43810;DHT22;29440;48.208;11.162;2023-01-30T00:22:50;-2.90;99.90
43810;DHT22;29440;48.208;11.162;2023-01-30T00:25:16;-2.90;99.90
43810;DHT22;29440;48.208;11.162;2023-01-30T00:27:41;-2.90;99.90
43810;DHT22;29440;48.208;11.162;2023-01-30T00:30:07;-3.00;99.90
43810;DHT22;29440;48.208;11.162;2023-01-30T00:32:33;-3.00;99.90
43810;DHT22;29440;48.208;11.162;2023-01-30T00:34:59;-3.00;99.90
43810;DHT22;29440;48.208;11.162;2023-01-30T00:37:25;-3.00;99.90
43810;DHT22;29440;48.208;11.162;2023-01-30T00:39:50;-2.90;99.90
43810;DHT22;29440;48.208;11.162;2023-01-30T00:42:16;-3.00;99.90
43810;DHT22;29440;48.208;11.162;2023-01-30T00:45:00;-3.00;99.90
43810;DHT22;29440;48.208;11.162;2023-01-30T00:47:44;-3.00;99.90
43810;DHT22;29440;48.208;11.162;2023-01-30T00:50:10;-3.00;99.90
43810;DHT22;29440;48.208;11.162;2023-01-30T00:52:36;-3.00;99.90
43810;DHT22;29440;48.208;11.162;2023-01-30T00:55:02;-3.00;99.90
43810;DHT22;29440;48.208;11.162;2023-01-30T00:57:27;-3.00;99.90
43810;DHT22;29440;48.208;11.162;2023-01-30T00:59:53;-3.00;99.90
43810;DHT22;29440;48.208;11.162;2023-01-30T01:02:19;-3.00;99.90
43810;DHT22;29440;48.208;11.162;2023-01-30T01:04:45;-2.90;99.90
43810;DHT22;29440;48.208;11.162;2023-01-30T01:07:11;-3.00;99.90
43810;DHT22;29440;48.208;11.162;2023-01-30T01:09:37;-3.00;99.90
43810;DHT22;29440;48.208;11.162;2023-01-30T01:12:04;-3.00;99.90
43810;DHT22;29440;48.208;11.162;2023-01-30T01:14:30;-2.90;99.90
43810;DHT22;29440;48.208;11.162;2023-01-30T01:16:55;-3.00;99.90
43810;DHT22;29440;48.208;11.162;2023-01-30T01:19:21;-2.90;99.90
43810;DHT22;29440;48.208;11.162;2023-01-30T01:21:47;-2.90;99.90
43810;DHT22;29440;48.208;11.162;2023-01-30T01:24:13;-2.90;99.90
43810;DHT22;29440;48.208;11.162;2023-01-30T01:26:39;-2.80;99.90
43810;DHT22;29440;48.208;11.162;2023-01-30T01:29:06;-2.90;99.90
43810;DHT22;29440;48.208;11.162;2023-01-30T01:31:31;-2.90;99.90
43810;DHT22;29440;48.208;11.162;2023-01-30T01:33:57;-2.90;99.90
43810;DHT22;29440;48.208;11.162;2023-01-30T01:36:22;-2.90;99.90
43810;DHT22;29440;48.208;11.162;2023-01-30T01:38:48;-2.90;99.90
43810;DHT22;29440;48.208;11.162;2023-01-30T01:41:16;-2.90;99.90
43810;DHT22;29440;48.208;11.162;2023-01-30T01:46:53;-3.00;99.90
43810;DHT22;29440;48.208;11.162;2023-01-30T01:49:28;-3.00;99.90
43810;DHT22;29440;48.208;11.162;2023-01-30T01:52:04;-3.00;99.90
43810;DHT22;29440;48.208;11.162;2023-01-30T01:54:38;-3.00;99.90
43810;DHT22;29440;48.208;11.162;2023-01-30T01:57:09;-3.00;99.90
43810;DHT22;29440;48.208;11.162;2023-01-30T01:59:52;-2.90;99.90
43810;DHT22;29440;48.208;11.162;2023-01-30T02:02:19;-3.00;99.90
43810;DHT22;29440;48.208;11.162;2023-01-30T02:04:48;-3.00;99.90
43810;DHT22;29440;48.208;11.162;2023-01-30T02:07:44;-2.90;99.90
43810;DHT22;29440;48.208;11.162;2023-01-30T02:10:18;-3.00;99.90
43810;DHT22;29440;48.208;11.162;2023-01-30T02:12:45;-3.00;99.90
43810;DHT22;29440;48.208;11.162;2023-01-30T02:15:12;-3.00;99.90
43810;DHT22;29440;48.208;11.162;2023-01-30T02:17:38;-3.10;99.90
43810;DHT22;29440;48.208;11.162;2023-01-30T02:20:13;-3.10;99.90
43810;DHT22;29440;48.208;11.162;2023-01-30T02:31:04;-3.10;99.90
43810;DHT22;29440;48.208;11.162;2023-01-30T02:39:25;-3.20;99.90
43810;DHT22;29440;48.208;11.162;2023-01-30T02:47:22;-3.30;99.90
43810;DHT22;29440;48.208;11.162;2023-01-30T02:49:57;-3.30;99.90
43810;DHT22;29440;48.208;11.162;2023-01-30T02:52:26;-3.30;99.90
43810;DHT22;29440;48.208;11.162;2023-01-30T02:54:53;-3.30;99.90
43810;DHT22;29440;48.208;11.162;2023-01-30T02:57:20;-3.20;99.90
43810;DHT22;29440;48.208;11.162;2023-01-30T02:59:49;-3.20;99.90
43810;DHT22;29440;48.208;11.162;2023-01-30T03:05:19;-3.20;99.90
43810;DHT22;29440;48.208;11.162;2023-01-30T03:11:04;-3.10;99.90
43810;DHT22;29440;48.208;11.162;2023-01-30T03:13:54;-3.10;99.90
43810;DHT22;29440;48.208;11.162;2023-01-30T03:16:29;-3.00;99.90
43810;DHT22;29440;48.208;11.162;2023-01-30T03:18:58;-3.00;99.90
43810;DHT22;29440;48.208;11.162;2023-01-30T03:21:23;-3.00;99.90
43810;DHT22;29440;48.208;11.162;2023-01-30T03:23:49;-2.90;99.90
43810;DHT22;29440;48.208;11.162;2023-01-30T03:26:20;-2.90;99.90
43810;DHT22;29440;48.208;11.162;2023-01-30T03:28:49;-2.90;99.90
43810;DHT22;29440;48.208;11.162;2023-01-30T03:31:15;-2.90;99.90
43810;DHT22;29440;48.208;11.162;2023-01-30T03:33:41;-2.90;99.90
43810;DHT22;29440;48.208;11.162;2023-01-30T03:36:07;-2.80;99.90
43810;DHT22;29440;48.208;11.162;2023-01-30T03:38:34;-2.80;99.90
43810;DHT22;29440;48.208;11.162;2023-01-30T03:41:00;-2.70;99.90
43810;DHT22;29440;48.208;11.162;2023-01-30T03:43:25;-2.80;99.90
43810;DHT22;29440;48.208;11.162;2023-01-30T03:45:51;-2.70;99.90
43810;DHT22;29440;48.208;11.162;2023-01-30T03:48:16;-2.70;99.90
43810;DHT22;29440;48.208;11.162;2023-01-30T03:50:42;-2.70;99.90
43810;DHT22;29440;48.208;11.162;2023-01-30T03:53:07;-2.70;99.90
43810;DHT22;29440;48.208;11.162;2023-01-30T03:55:33;-2.60;99.90
43810;DHT22;29440;48.208;11.162;2023-01-30T03:57:59;-2.60;99.90
43810;DHT22;29440;48.208;11.162;2023-01-30T04:00:24;-2.60;99.90
43810;DHT22;29440;48.208;11.162;2023-01-30T04:02:50;-2.50;99.90
43810;DHT22;29440;48.208;11.162;2023-01-30T04:05:16;-2.50;99.90
43810;DHT22;29440;48.208;11.162;2023-01-30T04:07:42;-2.50;99.90
43810;DHT22;29440;48.208;11.162;2023-01-30T04:10:08;-2.50;99.90
43810;DHT22;29440;48.208;11.162;2023-01-30T04:12:34;-2.40;99.90
43810;DHT22;29440;48.208;11.162;2023-01-30T04:14:59;-2.30;99.90
43810;DHT22;29440;48.208;11.162;2023-01-30T04:17:25;-2.30;99.90
43810;DHT22;29440;48.208;11.162;2023-01-30T04:19:50;-2.30;99.90
43810;DHT22;29440;48.208;11.162;2023-01-30T04:22:16;-2.20;99.90
43810;DHT22;29440;48.208;11.162;2023-01-30T04:24:41;-2.20;99.90
43810;DHT22;29440;48.208;11.162;2023-01-30T04:27:07;-2.10;99.90
43810;DHT22;29440;48.208;11.162;2023-01-30T04:29:33;-2.00;99.90
43810;DHT22;29440;48.208;11.162;2023-01-30T04:31:59;-2.10;99.90
43810;DHT22;29440;48.208;11.162;2023-01-30T04:34:24;-2.00;99.90
43810;DHT22;29440;48.208;11.162;2023-01-30T04:36:50;-2.00;99.90
43810;DHT22;29440;48.208;11.162;2023-01-30T04:39:15;-2.00;99.90
43810;DHT22;29440;48.208;11.162;2023-01-30T04:41:41;-2.00;99.90
43810;DHT22;29440;48.208;11.162;2023-01-30T04:44:06;-2.00;99.90
43810;DHT22;29440;48.208;11.162;2023-01-30T04:46:32;-2.00;99.90
43810;DHT22;29440;48.208;11.162;2023-01-30T04:48:58;-2.00;99.90
43810;DHT22;29440;48.208;11.162;2023-01-30T04:51:23;-2.00;99.90
43810;DHT22;29440;48.208;11.162;2023-01-30T04:53:49;-1.90;99.90
43810;DHT22;29440;48.208;11.162;2023-01-30T04:56:14;-1.90;99.90
43810;DHT22;29440;48.208;11.162;2023-01-30T04:58:40;-1.90;99.90
43810;DHT22;29440;48.208;11.162;2023-01-30T05:01:18;-1.90;99.90
43810;DHT22;29440;48.208;11.162;2023-01-30T05:03:49;-1.90;99.90
43810;DHT22;29440;48.208;11.162;2023-01-30T05:06:14;-2.00;99.90
43810;DHT22;29440;48.208;11.162;2023-01-30T05:08:40;-1.90;99.90
43810;DHT22;29440;48.208;11.162;2023-01-30T05:11:05;-1.90;99.90
43810;DHT22;29440;48.208;11.162;2023-01-30T05:13:31;-1.90;99.90
43810;DHT22;29440;48.208;11.162;2023-01-30T05:15:56;-1.90;99.90
43810;DHT22;29440;48.208;11.162;2023-01-30T05:18:22;-1.90;99.90
43810;DHT22;29440;48.208;11.162;2023-01-30T05:20:47;-1.90;99.90
43810;DHT22;29440;48.208;11.162;2023-01-30T05:23:13;-1.90;99.90
43810;DHT22;29440;48.208;11.162;2023-01-30T05:25:41;-1.90;99.90
43810;DHT22;29440;48.208;11.162;2023-01-30T05:28:07;-1.90;99.90
43810;DHT22;29440;48.208;11.162;2023-01-30T05:30:32;-1.80;99.90
43810;DHT22;29440;48.208;11.162;2023-01-30T05:32:58;-1.90;99.90
43810;DHT22;29440;48.208;11.162;2023-01-30T05:35:23;-1.90;99.90
43810;DHT22;29440;48.208;11.162;2023-01-30T05:37:50;-1.80;99.90
43810;DHT22;29440;48.208;11.162;2023-01-30T05:40:15;-1.90;99.90
43810;DHT22;29440;48.208;11.162;2023-01-30T05:42:41;-1.90;99.90
43810;DHT22;29440;48.208;11.162;2023-01-30T05:45:07;-1.90;99.90
43810;DHT22;29440;48.208;11.162;2023-01-30T05:47:33;-1.90;99.90
43810;DHT22;29440;48.208;11.162;2023-01-30T05:49:59;-1.90;99.90
43810;DHT22;29440;48.208;11.162;2023-01-30T05:52:24;-1.90;99.90
43810;DHT22;29440;48.208;11.162;2023-01-30T05:54:50;-1.90;99.90
43810;DHT22;29440;48.208;11.162;2023-01-30T05:57:15;-1.90;99.90
43810;DHT22;29440;48.208;11.162;2023-01-30T05:59:41;-1.90;99.90
43810;DHT22;29440;48.208;11.162;2023-01-30T06:02:06;-1.90;99.90
43810;DHT22;29440;48.208;11.162;2023-01-30T06:04:32;-1.90;99.90
43810;DHT22;29440;48.208;11.162;2023-01-30T06:06:57;-1.90;99.90
43810;DHT22;29440;48.208;11.162;2023-01-30T06:09:23;-1.80;99.90
43810;DHT22;29440;48.208;11.162;2023-01-30T06:11:48;-1.70;99.90
43810;DHT22;29440;48.208;11.162;2023-01-30T06:14:16;-1.70;99.90
43810;DHT22;29440;48.208;11.162;2023-01-30T06:16:42;-1.60;99.90
43810;DHT22;29440;48.208;11.162;2023-01-30T06:19:07;-1.60;99.90
43810;DHT22;29440;48.208;11.162;2023-01-30T06:21:33;-1.50;99.90
43810;DHT22;29440;48.208;11.162;2023-01-30T06:23:58;-1.50;99.90
43810;DHT22;29440;48.208;11.162;2023-01-30T06:26:24;-1.50;99.90
43810;DHT22;29440;48.208;11.162;2023-01-30T06:28:50;-1.40;99.90
43810;DHT22;29440;48.208;11.162;2023-01-30T06:31:15;-1.40;99.90
43810;DHT22;29440;48.208;11.162;2023-01-30T06:33:42;-1.40;99.90
43810;DHT22;29440;48.208;11.162;2023-01-30T06:36:08;-1.40;99.90
43810;DHT22;29440;48.208;11.162;2023-01-30T06:38:34;-1.40;99.90
43810;DHT22;29440;48.208;11.162;2023-01-30T06:41:00;-1.40;99.90
43810;DHT22;29440;48.208;11.162;2023-01-30T06:43:25;-1.40;99.90
43810;DHT22;29440;48.208;11.162;2023-01-30T06:45:51;-1.40;99.90
43810;DHT22;29440;48.208;11.162;2023-01-30T06:48:16;-1.40;99.90
43810;DHT22;29440;48.208;11.162;2023-01-30T06:50:44;-1.40;99.90
43810;DHT22;29440;48.208;11.162;2023-01-30T06:53:10;-1.30;99.90
43810;DHT22;29440;48.208;11.162;2023-01-30T06:55:35;-1.30;99.90
43810;DHT22;29440;48.208;11.162;2023-01-30T06:58:06;-1.30;99.90
43810;DHT22;29440;48.208;11.162;2023-01-30T07:00:32;-1.20;99.90
43810;DHT22;29440;48.208;11.162;2023-01-30T07:02:58;-1.20;99.90
43810;DHT22;29440;48.208;11.162;2023-01-30T07:05:24;-1.20;99.90
43810;DHT22;29440;48.208;11.162;2023-01-30T07:07:50;-1.10;99.90
43810;DHT22;29440;48.208;11.162;2023-01-30T07:10:16;-1.10;99.90
43810;DHT22;29440;48.208;11.162;2023-01-30T07:12:43;-1.10;99.90
43810;DHT22;29440;48.208;11.162;2023-01-30T07:15:09;-1.00;99.90
43810;DHT22;29440;48.208;11.162;2023-01-30T07:17:34;-1.00;99.90
43810;DHT22;29440;48.208;11.162;2023-01-30T07:20:00;-0.90;99.90
43810;DHT22;29440;48.208;11.162;2023-01-30T07:22:25;-0.90;99.90
43810;DHT22;29440;48.208;11.162;2023-01-30T07:24:51;-0.90;99.90
43810;DHT22;29440;48.208;11.162;2023-01-30T07:27:16;-0.90;99.90
43810;DHT22;29440;48.208;11.162;2023-01-30T07:29:42;-0.90;99.90
43810;DHT22;29440;48.208;11.162;2023-01-30T07:32:13;-0.80;99.90
43810;DHT22;29440;48.208;11.162;2023-01-30T07:34:39;-0.80;99.90
43810;DHT22;29440;48.208;11.162;2023-01-30T07:37:04;-0.80;99.90
43810;DHT22;29440;48.208;11.162;2023-01-30T07:39:30;-0.80;99.90
43810;DHT22;29440;48.208;11.162;2023-01-30T07:41:55;-0.80;99.90
43810;DHT22;29440;48.208;11.162;2023-01-30T07:44:21;-0.80;99.90
43810;DHT22;29440;48.208;11.162;2023-01-30T07:46:47;-0.80;99.90
43810;DHT22;29440;48.208;11.162;2023-01-30T07:49:12;-0.70;99.90
43810;DHT22;29440;48.208;11.162;2023-01-30T07:51:38;-0.60;99.90
43810;DHT22;29440;48.208;11.162;2023-01-30T07:54:03;-0.50;99.90
43810;DHT22;29440;48.208;11.162;2023-01-30T07:56:29;-0.40;99.90
43810;DHT22;29440;48.208;11.162;2023-01-30T07:58:55;-0.40;99.90
43810;DHT22;29440;48.208;11.162;2023-01-30T08:01:21;-0.30;99.90
43810;DHT22;29440;48.208;11.162;2023-01-30T08:03:47;-0.30;99.90
43810;DHT22;29440;48.208;11.162;2023-01-30T08:06:14;-0.20;99.90
43810;DHT22;29440;48.208;11.162;2023-01-30T08:08:40;-0.30;99.90
43810;DHT22;29440;48.208;11.162;2023-01-30T08:11:06;-0.20;99.90
43810;DHT22;29440;48.208;11.162;2023-01-30T08:13:33;-0.20;99.90
43810;DHT22;29440;48.208;11.162;2023-01-30T08:15:59;-0.20;99.90
43810;DHT22;29440;48.208;11.162;2023-01-30T08:18:27;-0.10;99.90
43810;DHT22;29440;48.208;11.162;2023-01-30T08:20:56;-0.10;99.90
43810;DHT22;29440;48.208;11.162;2023-01-30T08:23:22;-0.10;99.90
43810;DHT22;29440;48.208;11.162;2023-01-30T08:25:47;0.00;99.90
43810;DHT22;29440;48.208;11.162;2023-01-30T08:28:13;0.00;99.90
43810;DHT22;29440;48.208;11.162;2023-01-30T08:30:40;0.10;99.90
43810;DHT22;29440;48.208;11.162;2023-01-30T08:33:06;0.20;99.90
43810;DHT22;29440;48.208;11.162;2023-01-30T08:35:31;0.40;99.90
43810;DHT22;29440;48.208;11.162;2023-01-30T08:37:57;0.60;99.90
43810;DHT22;29440;48.208;11.162;2023-01-30T08:40:22;0.90;99.90
43810;DHT22;29440;48.208;11.162;2023-01-30T08:42:48;1.30;99.90
43810;DHT22;29440;48.208;11.162;2023-01-30T08:45:13;1.90;99.90
43810;DHT22;29440;48.208;11.162;2023-01-30T08:47:39;2.40;99.90
43810;DHT22;29440;48.208;11.162;2023-01-30T08:50:05;2.80;99.90
43810;DHT22;29440;48.208;11.162;2023-01-30T08:52:34;3.20;99.90
43810;DHT22;29440;48.208;11.162;2023-01-30T08:54:59;3.50;99.90
43810;DHT22;29440;48.208;11.162;2023-01-30T08:57:25;3.40;99.90
43810;DHT22;29440;48.208;11.162;2023-01-30T08:59:50;3.50;99.90
43810;DHT22;29440;48.208;11.162;2023-01-30T09:02:16;3.40;99.90
43810;DHT22;29440;48.208;11.162;2023-01-30T09:04:42;3.50;99.90
43810;DHT22;29440;48.208;11.162;2023-01-30T09:07:07;3.50;99.90
43810;DHT22;29440;48.208;11.162;2023-01-30T09:09:33;3.60;99.90
43810;DHT22;29440;48.208;11.162;2023-01-30T09:11:59;3.90;99.90
43810;DHT22;29440;48.208;11.162;2023-01-30T09:14:24;4.00;99.90
43810;DHT22;29440;48.208;11.162;2023-01-30T09:16:50;4.10;99.90
43810;DHT22;29440;48.208;11.162;2023-01-30T09:19:24;4.10;99.90
43810;DHT22;29440;48.208;11.162;2023-01-30T09:21:50;4.30;99.90
43810;DHT22;29440;48.208;11.162;2023-01-30T09:24:16;4.50;99.90
43810;DHT22;29440;48.208;11.162;2023-01-30T09:26:41;4.50;99.90
43810;DHT22;29440;48.208;11.162;2023-01-30T09:29:13;4.50;99.90
43810;DHT22;29440;48.208;11.162;2023-01-30T09:31:39;4.60;99.90
43810;DHT22;29440;48.208;11.162;2023-01-30T09:34:05;4.50;99.90
43810;DHT22;29440;48.208;11.162;2023-01-30T09:36:31;4.40;99.90
43810;DHT22;29440;48.208;11.162;2023-01-30T09:38:56;4.20;99.90
43810;DHT22;29440;48.208;11.162;2023-01-30T09:47:12;3.40;99.90
43810;DHT22;29440;48.208;11.162;2023-01-30T09:50:07;3.30;99.90
43810;DHT22;29440;48.208;11.162;2023-01-30T09:55:21;3.10;99.90
43810;DHT22;29440;48.208;11.162;2023-01-30T09:57:49;3.10;99.90
43810;DHT22;29440;48.208;11.162;2023-01-30T10:00:31;3.10;99.90
43810;DHT22;29440;48.208;11.162;2023-01-30T10:05:45;3.20;99.90
43810;DHT22;29440;48.208;11.162;2023-01-30T10:10:48;3.30;99.90
43810;DHT22;29440;48.208;11.162;2023-01-30T10:16:14;3.50;99.90
43810;DHT22;29440;48.208;11.162;2023-01-30T10:21:39;3.60;99.90
43810;DHT22;29440;48.208;11.162;2023-01-30T10:24:25;3.70;99.90
43810;DHT22;29440;48.208;11.162;2023-01-30T10:26:56;3.70;99.90
43810;DHT22;29440;48.208;11.162;2023-01-30T10:29:33;3.90;99.90
43810;DHT22;29440;48.208;11.162;2023-01-30T10:34:42;4.20;99.90
43810;DHT22;29440;48.208;11.162;2023-01-30T10:37:49;4.30;99.90
43810;DHT22;29440;48.208;11.162;2023-01-30T10:40:40;4.50;99.90
43810;DHT22;29440;48.208;11.162;2023-01-30T10:43:26;4.60;99.90
43810;DHT22;29440;48.208;11.162;2023-01-30T10:46:14;4.60;99.90
43810;DHT22;29440;48.208;11.162;2023-01-30T10:48:55;4.60;99.90
43810;DHT22;29440;48.208;11.162;2023-01-30T10:59:52;4.20;99.90
43810;DHT22;29440;48.208;11.162;2023-01-30T11:02:35;4.00;99.90
43810;DHT22;29440;48.208;11.162;2023-01-30T11:05:21;3.90;99.90
43810;DHT22;29440;48.208;11.162;2023-01-30T11:07:48;3.80;99.90
43810;DHT22;29440;48.208;11.162;2023-01-30T11:10:21;3.60;99.90
43810;DHT22;29440;48.208;11.162;2023-01-30T11:13:16;3.60;99.90
43810;DHT22;29440;48.208;11.162;2023-01-30T11:15:41;3.50;99.90
43810;DHT22;29440;48.208;11.162;2023-01-30T11:18:08;3.50;99.90
43810;DHT22;29440;48.208;11.162;2023-01-30T11:20:39;3.50;99.90
43810;DHT22;29440;48.208;11.162;2023-01-30T11:23:08;3.50;99.90
43810;DHT22;29440;48.208;11.162;2023-01-30T11:25:52;3.40;99.90
43810;DHT22;29440;48.208;11.162;2023-01-30T11:28:18;3.40;99.90
43810;DHT22;29440;48.208;11.162;2023-01-30T11:30:51;3.40;99.90
43810;DHT22;29440;48.208;11.162;2023-01-30T11:33:18;3.40;99.90
43810;DHT22;29440;48.208;11.162;2023-01-30T11:35:59;3.40;99.90
43810;DHT22;29440;48.208;11.162;2023-01-30T11:38:30;3.50;99.90
43810;DHT22;29440;48.208;11.162;2023-01-30T11:43:34;3.50;99.90
43810;DHT22;29440;48.208;11.162;2023-01-30T11:46:01;3.60;99.90
43810;DHT22;29440;48.208;11.162;2023-01-30T11:48:30;3.60;99.90
43810;DHT22;29440;48.208;11.162;2023-01-30T11:51:03;3.60;99.90
43810;DHT22;29440;48.208;11.162;2023-01-30T11:54:04;3.50;99.90
43810;DHT22;29440;48.208;11.162;2023-01-30T11:56:40;3.40;99.90
43810;DHT22;29440;48.208;11.162;2023-01-30T12:04:51;3.20;99.90
43810;DHT22;29440;48.208;11.162;2023-01-30T12:07:27;3.20;99.90
43810;DHT22;29440;48.208;11.162;2023-01-30T12:09:54;3.10;99.90
43810;DHT22;29440;48.208;11.162;2023-01-30T12:12:43;3.10;99.90
43810;DHT22;29440;48.208;11.162;2023-01-30T12:15:25;3.00;99.90
43810;DHT22;29440;48.208;11.162;2023-01-30T12:20:28;2.90;99.90
43810;DHT22;29440;48.208;11.162;2023-01-30T12:25:30;2.90;99.90
43810;DHT22;29440;48.208;11.162;2023-01-30T12:28:17;2.90;99.90
43810;DHT22;29440;48.208;11.162;2023-01-30T12:33:14;2.90;99.90
43810;DHT22;29440;48.208;11.162;2023-01-30T12:36:05;2.90;99.90
43810;DHT22;29440;48.208;11.162;2023-01-30T12:38:52;2.90;99.90
43810;DHT22;29440;48.208;11.162;2023-01-30T12:44:16;2.90;99.90
43810;DHT22;29440;48.208;11.162;2023-01-30T12:58:19;3.40;99.90
43810;DHT22;29440;48.208;11.162;2023-01-30T13:01:04;3.40;99.90
43810;DHT22;29440;48.208;11.162;2023-01-30T13:06:09;3.50;99.90
43810;DHT22;29440;48.208;11.162;2023-01-30T13:11:47;3.60;99.90
43810;DHT22;29440;48.208;11.162;2023-01-30T13:14:20;3.60;99.90
43810;DHT22;29440;48.208;11.162;2023-01-30T13:22:54;3.60;99.90
43810;DHT22;29440;48.208;11.162;2023-01-30T13:25:35;3.60;99.90
43810;DHT22;29440;48.208;11.162;2023-01-30T13:28:15;3.50;99.90
43810;DHT22;29440;48.208;11.162;2023-01-30T13:30:43;3.50;99.90
43810;DHT22;29440;48.208;11.162;2023-01-30T13:33:13;3.60;99.90
43810;DHT22;29440;48.208;11.162;2023-01-30T13:38:39;3.50;99.90
43810;DHT22;29440;48.208;11.162;2023-01-30T13:41:08;3.50;99.90
43810;DHT22;29440;48.208;11.162;2023-01-30T13:43:47;3.50;99.90
43810;DHT22;29440;48.208;11.162;2023-01-30T13:46:20;3.40;99.90
43810;DHT22;29440;48.208;11.162;2023-01-30T13:49:06;3.40;99.90
43810;DHT22;29440;48.208;11.162;2023-01-30T14:02:23;3.30;99.90
43810;DHT22;29440;48.208;11.162;2023-01-30T14:04:53;3.30;99.90
43810;DHT22;29440;48.208;11.162;2023-01-30T14:07:39;3.20;99.90
43810;DHT22;29440;48.208;11.162;2023-01-30T14:17:56;3.10;99.90
43810;DHT22;29440;48.208;11.162;2023-01-30T14:20:24;3.10;99.90
43810;DHT22;29440;48.208;11.162;2023-01-30T14:22:51;3.10;99.90
43810;DHT22;29440;48.208;11.162;2023-01-30T14:38:31;2.90;99.90
43810;DHT22;29440;48.208;11.162;2023-01-30T14:51:42;2.80;99.90
43810;DHT22;29440;48.208;11.162;2023-01-30T14:59:55;2.70;99.90
43810;DHT22;29440;48.208;11.162;2023-01-30T15:02:25;2.70;99.90
43810;DHT22;29440;48.208;11.162;2023-01-30T15:05:02;2.70;99.90
43810;DHT22;29440;48.208;11.162;2023-01-30T15:07:50;2.70;99.90
43810;DHT22;29440;48.208;11.162;2023-01-30T15:32:18;2.60;99.90
43810;DHT22;29440;48.208;11.162;2023-01-30T15:34:49;2.60;99.90
43810;DHT22;29440;48.208;11.162;2023-01-30T15:46:36;2.60;99.90
43810;DHT22;29440;48.208;11.162;2023-01-30T15:49:15;2.50;99.90
43810;DHT22;29440;48.208;11.162;2023-01-30T15:51:43;2.50;99.90
43810;DHT22;29440;48.208;11.162;2023-01-30T15:54:16;2.50;99.90
43810;DHT22;29440;48.208;11.162;2023-01-30T15:56:46;2.50;99.90
43810;DHT22;29440;48.208;11.162;2023-01-30T16:02:25;2.50;99.90
43810;DHT22;29440;48.208;11.162;2023-01-30T16:05:16;2.50;99.90
43810;DHT22;29440;48.208;11.162;2023-01-30T16:07:43;2.50;99.90
43810;DHT22;29440;48.208;11.162;2023-01-30T16:10:17;2.50;99.90
43810;DHT22;29440;48.208;11.162;2023-01-30T16:12:43;2.50;99.90
43810;DHT22;29440;48.208;11.162;2023-01-30T16:20:29;2.40;99.90
43810;DHT22;29440;48.208;11.162;2023-01-30T16:22:56;2.40;99.90
43810;DHT22;29440;48.208;11.162;2023-01-30T16:25:35;2.40;99.90
43810;DHT22;29440;48.208;11.162;2023-01-30T16:28:00;2.40;99.90
43810;DHT22;29440;48.208;11.162;2023-01-30T16:30:27;2.40;99.90
43810;DHT22;29440;48.208;11.162;2023-01-30T16:32:55;2.40;99.90
43810;DHT22;29440;48.208;11.162;2023-01-30T16:37:53;2.40;99.90
43810;DHT22;29440;48.208;11.162;2023-01-30T16:40:21;2.30;99.90
43810;DHT22;29440;48.208;11.162;2023-01-30T16:43:39;2.30;99.90
43810;DHT22;29440;48.208;11.162;2023-01-30T16:48:46;2.20;99.90
43810;DHT22;29440;48.208;11.162;2023-01-30T16:51:17;2.20;99.90
43810;DHT22;29440;48.208;11.162;2023-01-30T16:53:54;2.10;99.90
43810;DHT22;29440;48.208;11.162;2023-01-30T16:56:21;2.00;99.90
43810;DHT22;29440;48.208;11.162;2023-01-30T16:58:49;1.90;99.90
43810;DHT22;29440;48.208;11.162;2023-01-30T17:01:16;1.90;99.90
43810;DHT22;29440;48.208;11.162;2023-01-30T17:03:58;1.90;99.90
43810;DHT22;29440;48.208;11.162;2023-01-30T17:06:42;1.90;99.90
43810;DHT22;29440;48.208;11.162;2023-01-30T17:09:42;1.80;99.90
43810;DHT22;29440;48.208;11.162;2023-01-30T17:17:42;1.90;99.90
43810;DHT22;29440;48.208;11.162;2023-01-30T17:20:09;1.90;99.90
43810;DHT22;29440;48.208;11.162;2023-01-30T17:22:36;1.90;99.90
43810;DHT22;29440;48.208;11.162;2023-01-30T17:25:10;2.00;99.90
43810;DHT22;29440;48.208;11.162;2023-01-30T17:27:47;1.90;99.90
43810;DHT22;29440;48.208;11.162;2023-01-30T17:30:23;1.90;99.90
43810;DHT22;29440;48.208;11.162;2023-01-30T17:33:00;1.90;99.90
43810;DHT22;29440;48.208;11.162;2023-01-30T17:35:40;2.00;99.90
43810;DHT22;29440;48.208;11.162;2023-01-30T17:38:06;2.00;99.90
43810;DHT22;29440;48.208;11.162;2023-01-30T17:40:35;2.00;99.90
43810;DHT22;29440;48.208;11.162;2023-01-30T17:43:04;2.00;99.90
43810;DHT22;29440;48.208;11.162;2023-01-30T17:45:29;2.00;99.90
43810;DHT22;29440;48.208;11.162;2023-01-30T17:47:55;2.00;99.90
43810;DHT22;29440;48.208;11.162;2023-01-30T17:50:20;2.00;99.90
43810;DHT22;29440;48.208;11.162;2023-01-30T17:52:46;2.00;99.90
43810;DHT22;29440;48.208;11.162;2023-01-30T17:55:12;2.00;99.90
43810;DHT22;29440;48.208;11.162;2023-01-30T17:57:46;2.00;99.90
43810;DHT22;29440;48.208;11.162;2023-01-30T18:00:18;2.00;99.90
43810;DHT22;29440;48.208;11.162;2023-01-30T18:02:43;2.00;99.90
43810;DHT22;29440;48.208;11.162;2023-01-30T18:05:09;2.00;99.90
43810;DHT22;29440;48.208;11.162;2023-01-30T18:07:35;2.00;99.90
43810;DHT22;29440;48.208;11.162;2023-01-30T18:10:01;2.00;99.90
43810;DHT22;29440;48.208;11.162;2023-01-30T18:12:27;2.00;99.90
43810;DHT22;29440;48.208;11.162;2023-01-30T18:14:52;2.00;99.90
43810;DHT22;29440;48.208;11.162;2023-01-30T18:17:18;2.00;99.90
43810;DHT22;29440;48.208;11.162;2023-01-30T18:19:57;2.00;99.90
43810;DHT22;29440;48.208;11.162;2023-01-30T18:22:25;2.00;99.90
43810;DHT22;29440;48.208;11.162;2023-01-30T18:24:50;2.00;99.90
43810;DHT22;29440;48.208;11.162;2023-01-30T18:27:16;2.00;99.90
43810;DHT22;29440;48.208;11.162;2023-01-30T18:29:41;2.00;99.90
43810;DHT22;29440;48.208;11.162;2023-01-30T18:32:07;2.00;99.90
43810;DHT22;29440;48.208;11.162;2023-01-30T18:34:32;2.00;99.90
43810;DHT22;29440;48.208;11.162;2023-01-30T18:36:58;2.00;99.90
43810;DHT22;29440;48.208;11.162;2023-01-30T18:39:23;2.00;99.90
43810;DHT22;29440;48.208;11.162;2023-01-30T18:41:49;2.00;99.90
43810;DHT22;29440;48.208;11.162;2023-01-30T18:44:15;2.00;99.90
43810;DHT22;29440;48.208;11.162;2023-01-30T18:46:41;2.00;99.90
43810;DHT22;29440;48.208;11.162;2023-01-30T18:49:06;2.00;99.90
43810;DHT22;29440;48.208;11.162;2023-01-30T18:51:32;2.00;99.90
43810;DHT22;29440;48.208;11.162;2023-01-30T18:54:00;2.10;99.90
43810;DHT22;29440;48.208;11.162;2023-01-30T18:56:28;2.10;99.90
43810;DHT22;29440;48.208;11.162;2023-01-30T18:58:56;2.10;99.90